Time;durP1;ratioP1;P1;durP2;ratioP2;P2;SDS_P1;SDS_P2;PMS_P1;PMS_P2;Temp;Humidity;BMP_temperature;BMP_pressure;BME280_temperature;BME280_humidity;BME280_pressure;Samples;Min_cycle;Max_cycle;Signal;HPM_P1;HPM_P2
2022/01/15 00:01:32;;;;;;;7.57;6.78;;;16.80;47.10;;;;;;5117376;28;20075;-57
2022/01/15 00:03:59;;;;;;;7.60;6.40;;;16.80;47.20;;;;;;5116849;28;20023;-57
2022/01/15 00:06:25;;;;;;;7.35;6.63;;;16.80;47.10;;;;;;5116213;28;20020;-58
2022/01/15 00:08:52;;;;;;;7.47;6.70;;;16.80;47.20;;;;;;5115574;28;20522;-57
2022/01/15 00:11:19;;;;;;;8.38;6.20;;;16.80;47.20;;;;;;5115675;28;20020;-58
2022/01/15 00:13:53;;;;;;;7.40;6.68;;;16.80;47.20;;;;;;5115673;27;20061;-57
2022/01/15 00:16:44;;;;;;;7.10;6.18;;;16.80;47.20;;;;;;5115615;28;20020;-57
2022/01/15 00:19:12;;;;;;;7.90;6.43;;;16.70;47.70;;;;;;5116049;28;20035;-57
2022/01/15 00:21:38;;;;;;;7.47;6.50;;;16.80;47.20;;;;;;5116299;28;20027;-58
2022/01/15 00:24:05;;;;;;;7.32;6.38;;;16.80;47.20;;;;;;5115813;28;20032;-58
2022/01/15 00:26:32;;;;;;;8.60;6.95;;;16.70;47.20;;;;;;5115164;28;20489;-58
2022/01/15 00:28:58;;;;;;;8.00;6.15;;;16.70;47.20;;;;;;5116048;28;20019;-58
2022/01/15 00:31:23;;;;;;;7.10;6.35;;;16.70;47.20;;;;;;5115862;28;20023;-58
2022/01/15 00:33:49;;;;;;;8.55;6.72;;;16.80;47.20;;;;;;5114642;28;20020;-59
2022/01/15 00:36:16;;;;;;;8.27;6.47;;;16.70;47.20;;;;;;5115445;28;20031;-57
2022/01/15 00:38:42;;;;;;;7.70;6.30;;;16.70;47.20;;;;;;5115750;28;20024;-58
2022/01/15 00:41:09;;;;;;;7.07;6.07;;;16.70;47.20;;;;;;5115758;28;20478;-61
2022/01/15 00:43:35;;;;;;;7.20;6.30;;;16.80;47.20;;;;;;5115190;28;20049;-58
2022/01/15 00:46:01;;;;;;;6.82;6.10;;;16.80;47.20;;;;;;5115509;28;20462;-55
2022/01/15 00:48:26;;;;;;;7.00;6.25;;;16.90;46.80;;;;;;5115200;28;20024;-57
2022/01/15 00:50:53;;;;;;;7.57;6.40;;;17.00;46.60;;;;;;5115003;28;20012;-57
2022/01/15 00:53:19;;;;;;;6.55;5.90;;;17.10;46.40;;;;;;5114810;28;20016;-57
2022/01/15 00:55:46;;;;;;;8.60;6.15;;;17.10;46.20;;;;;;5115737;28;20023;-57
2022/01/15 00:58:12;;;;;;;6.75;6.03;;;17.20;46.10;;;;;;5115265;28;20473;-56
2022/01/15 01:00:38;;;;;;;8.68;6.25;;;17.30;46.00;;;;;;5115622;28;20020;-57
2022/01/15 01:03:05;;;;;;;6.82;5.85;;;17.40;45.90;;;;;;5115887;28;20032;-55
2022/01/15 01:05:30;;;;;;;6.75;5.90;;;17.40;45.70;;;;;;5114523;28;20474;-57
2022/01/15 01:07:57;;;;;;;6.95;6.18;;;17.50;45.50;;;;;;5115386;28;20040;-59
2022/01/15 01:23:34;;;;;;;6.68;5.72;;;18.00;44.40;;;;;;5116090;28;20460;-57
2022/01/15 01:26:08;;;;;;;6.78;5.47;;;18.10;44.30;;;;;;5115802;28;20019;-57
2022/01/15 01:28:40;;;;;;;6.53;5.85;;;18.20;44.10;;;;;;5114337;28;20024;-56
2022/01/15 01:31:25;;;;;;;6.20;5.30;;;18.20;43.90;;;;;;5114872;28;20016;-57
2022/01/15 01:33:55;;;;;;;6.07;5.22;;;18.30;43.90;;;;;;5115018;28;20024;-56
2022/01/15 01:36:37;;;;;;;5.82;5.30;;;18.30;43.70;;;;;;5116148;28;20029;-55
2022/01/15 01:39:08;;;;;;;6.82;5.68;;;18.40;43.70;;;;;;5115430;28;20027;-56
2022/01/15 01:41:37;;;;;;;7.30;5.40;;;18.40;43.60;;;;;;5115307;28;20023;-57
2022/01/15 01:44:04;;;;;;;6.22;5.60;;;18.40;43.50;;;;;;5114740;28;20034;-56
2022/01/15 01:46:46;;;;;;;6.22;5.53;;;18.50;43.50;;;;;;5114429;28;20016;-57
2022/01/15 01:49:13;;;;;;;6.93;5.38;;;18.50;43.40;;;;;;5115524;28;20370;-57
2022/01/15 01:51:42;;;;;;;7.57;5.57;;;18.60;43.40;;;;;;5118660;28;20004;-57
2022/01/15 01:54:13;;;;;;;9.95;5.90;;;18.60;43.20;;;;;;5118336;28;20019;-57
2022/01/15 01:56:39;;;;;;;;;;;18.60;43.20;;;;;;5119398;28;20069;-58
2022/01/15 01:59:06;;;;;;;6.85;5.55;;;18.70;43.20;;;;;;5117157;28;19911;-56
2022/01/15 02:01:32;;;;;;;7.25;5.70;;;18.70;43.10;;;;;;5118513;28;20020;-55
2022/01/15 02:03:59;;;;;;;7.47;5.40;;;18.70;43.10;;;;;;5119022;28;20058;-56
2022/01/15 02:06:25;;;;;;;6.80;5.93;;;18.70;43.10;;;;;;5118520;28;20458;-57
2022/01/15 02:08:54;;;;;;;6.63;5.53;;;18.70;43.00;;;;;;5118171;28;20040;-58
2022/01/15 02:11:20;;;;;;;6.07;5.38;;;18.80;43.00;;;;;;5117816;28;20091;-57
2022/01/15 02:13:46;;;;;;;8.13;5.68;;;18.80;43.00;;;;;;5117904;28;20016;-56
2022/01/15 02:16:12;;;;;;;6.05;5.43;;;18.80;42.90;;;;;;5117653;28;20065;-57
2022/01/15 02:18:40;;;;;;;6.68;5.57;;;18.80;42.90;;;;;;5116673;28;20047;-57
2022/01/15 02:23:44;;;;;;;5.20;4.70;;;18.80;42.90;;;;;;5118239;28;20127;-57
2022/01/15 02:26:11;;;;;;;5.60;5.00;;;18.90;42.90;;;;;;5118866;28;20015;-57
2022/01/15 02:28:42;;;;;;;6.53;5.43;;;19.00;42.80;;;;;;5116889;28;20054;-55
2022/01/15 02:31:14;;;;;;;5.50;4.95;;;19.00;42.70;;;;;;5118016;28;20035;-59
2022/01/15 02:33:41;;;;;;;6.60;5.35;;;19.00;42.70;;;;;;5118357;28;20484;-57
2022/01/15 02:36:12;;;;;;;6.25;5.13;;;19.00;42.80;;;;;;5118604;28;20084;-56
2022/01/15 02:38:38;;;;;;;6.68;5.47;;;19.00;42.70;;;;;;5118244;28;20024;-58
2022/01/15 02:41:04;;;;;;;7.15;5.45;;;19.00;42.60;;;;;;5117901;28;20015;-64
2022/01/15 02:43:33;;;;;;;8.02;5.43;;;19.00;42.60;;;;;;5118277;28;20107;-57
2022/01/15 02:46:17;;;;;;;6.25;5.28;;;19.00;42.60;;;;;;5117705;28;20012;-58
2022/01/15 02:48:43;;;;;;;5.95;5.07;;;19.10;42.70;;;;;;5117334;28;20020;-57
2022/01/15 02:51:11;;;;;;;5.82;5.13;;;19.00;42.60;;;;;;5117245;28;20020;-58
2022/01/15 02:53:37;;;;;;;6.95;5.32;;;19.10;42.70;;;;;;5117665;28;20038;-57
2022/01/15 02:56:03;;;;;;;6.25;5.53;;;19.10;42.60;;;;;;5117839;28;20529;-62
2022/01/15 02:58:29;;;;;;;6.60;5.63;;;19.10;42.60;;;;;;5116023;28;20559;-57
2022/01/15 03:00:55;;;;;;;7.78;4.95;;;19.10;42.60;;;;;;5115849;28;20028;-58
2022/01/15 03:03:21;;;;;;;6.45;5.00;;;19.10;42.60;;;;;;5117760;27;20470;-59
2022/01/15 03:05:47;;;;;;;6.25;5.25;;;19.10;42.60;;;;;;5118180;28;20016;-60
2022/01/15 03:08:13;;;;;;;5.85;5.03;;;19.20;42.60;;;;;;5117797;28;20032;-59
2022/01/15 03:10:40;;;;;;;5.82;5.22;;;19.10;42.60;;;;;;5117520;28;20020;-58
2022/01/15 03:13:11;;;;;;;7.93;4.78;;;19.20;42.60;;;;;;5116935;28;20462;-57
2022/01/15 03:15:37;;;;;;;6.18;5.38;;;19.20;42.70;;;;;;5118419;28;20024;-61
2022/01/15 03:18:04;;;;;;;5.40;4.90;;;19.20;42.60;;;;;;5117958;28;20118;-60
2022/01/15 03:20:30;;;;;;;6.60;5.18;;;19.20;42.50;;;;;;5117902;28;20087;-58
2022/01/15 03:22:56;;;;;;;6.28;5.20;;;19.20;42.50;;;;;;5118146;28;20051;-58
2022/01/15 03:25:21;;;;;;;6.15;5.05;;;19.30;42.50;;;;;;5118313;28;20034;-61
2022/01/15 03:27:48;;;;;;;7.20;5.35;;;19.20;42.50;;;;;;5118199;28;20107;-60
2022/01/15 03:30:14;;;;;;;6.63;4.90;;;19.30;42.50;;;;;;5118218;28;20042;-58
2022/01/15 03:32:43;;;;;;;5.60;5.00;;;19.30;42.50;;;;;;5118172;28;20073;-59
2022/01/15 03:35:17;;;;;;;5.40;4.90;;;19.30;42.50;;;;;;5118339;28;20011;-60
2022/01/15 03:37:44;;;;;;;5.72;5.10;;;19.30;42.40;;;;;;5118166;28;20012;-59
2022/01/15 03:40:12;;;;;;;6.75;5.40;;;19.30;42.50;;;;;;5119048;28;20377;-59
2022/01/15 03:42:38;;;;;;;6.28;5.20;;;19.30;42.50;;;;;;5118878;28;20015;-59
2022/01/15 03:45:05;;;;;;;5.68;5.07;;;19.30;42.50;;;;;;5119420;28;20012;-59
2022/01/15 03:47:30;;;;;;;5.55;4.93;;;19.30;42.50;;;;;;5119916;28;20393;-60
2022/01/15 03:49:57;;;;;;;6.18;5.13;;;19.30;42.50;;;;;;5118549;28;20466;-60
2022/01/15 03:52:24;;;;;;;6.30;5.10;;;19.30;42.50;;;;;;5118706;28;20152;-59
2022/01/15 03:54:51;;;;;;;5.63;5.00;;;19.30;42.50;;;;;;5118795;28;20065;-58
2022/01/15 03:57:17;;;;;;;5.60;5.03;;;19.30;42.50;;;;;;5119109;28;20043;-59
2022/01/15 03:59:45;;;;;;;5.78;5.07;;;19.30;42.50;;;;;;5116913;28;20377;-59
2022/01/15 04:02:11;;;;;;;5.78;5.18;;;19.30;42.50;;;;;;5119058;28;20020;-59
2022/01/15 04:04:38;;;;;;;5.40;4.80;;;19.30;42.50;;;;;;5118977;27;20027;-59
2022/01/15 04:07:05;;;;;;;5.30;4.75;;;19.40;42.50;;;;;;5118235;28;20012;-59
2022/01/15 04:09:31;;;;;;;6.47;4.75;;;19.40;42.60;;;;;;5118283;28;20043;-59
2022/01/15 04:11:58;;;;;;;5.65;5.05;;;19.30;42.50;;;;;;5117401;28;20023;-58
2022/01/15 04:14:25;;;;;;;5.45;4.90;;;19.30;42.40;;;;;;5118110;28;20031;-59
2022/01/15 04:16:51;;;;;;;6.57;5.13;;;19.40;42.50;;;;;;5118204;28;20069;-59
2022/01/15 04:19:18;;;;;;;6.05;4.53;;;19.40;42.50;;;;;;5117853;28;20054;-59
2022/01/15 04:21:43;;;;;;;5.35;4.85;;;19.40;42.80;;;;;;5117857;28;20024;-59
2022/01/15 04:24:10;;;;;;;5.40;4.90;;;19.40;42.50;;;;;;5117496;28;20034;-58
2022/01/15 04:26:35;;;;;;;5.65;4.93;;;19.40;42.50;;;;;;5118044;28;20024;-59
2022/01/15 04:29:04;;;;;;;5.45;4.70;;;19.40;42.50;;;;;;5117550;28;20446;-59
2022/01/15 04:31:46;;;;;;;5.13;4.63;;;19.40;42.50;;;;;;5118514;28;20043;-59
2022/01/15 04:34:15;;;;;;;5.50;4.70;;;19.40;42.50;;;;;;5118101;28;20019;-59
2022/01/15 04:36:41;;;;;;;5.88;5.30;;;19.50;42.50;;;;;;5118474;28;20043;-59
2022/01/15 04:39:06;;;;;;;8.23;5.30;;;19.40;42.50;;;;;;5118752;28;20378;-59
2022/01/15 04:41:32;;;;;;;5.68;5.07;;;19.50;42.50;;;;;;5118606;28;20378;-59
2022/01/15 04:43:59;;;;;;;5.65;5.13;;;19.50;42.50;;;;;;5118416;28;20043;-59
2022/01/15 04:46:24;;;;;;;5.95;5.00;;;19.50;42.40;;;;;;5116435;28;20024;-58
2022/01/15 04:48:50;;;;;;;5.90;4.97;;;19.50;42.50;;;;;;5118839;28;20023;-59
2022/01/15 04:51:17;;;;;;;6.07;5.18;;;19.50;42.40;;;;;;5118589;28;20369;-58
2022/01/15 04:53:43;;;;;;;7.30;4.93;;;19.50;42.50;;;;;;5118581;28;20043;-58
2022/01/15 04:56:09;;;;;;;4.97;4.53;;;19.50;42.50;;;;;;5118322;28;20030;-58
2022/01/15 04:58:35;;;;;;;7.13;5.30;;;19.50;42.50;;;;;;5118304;28;20023;-57
2022/01/15 05:01:02;;;;;;;5.80;5.20;;;19.50;43.00;;;;;;5118675;28;20020;-58
2022/01/15 05:03:28;;;;;;;5.93;5.00;;;19.50;42.50;;;;;;5118201;28;20478;-56
2022/01/15 05:05:54;;;;;;;5.60;5.10;;;19.50;42.40;;;;;;5119045;28;20028;-57
2022/01/15 05:08:21;;;;;;;5.95;4.97;;;19.50;42.40;;;;;;5118670;28;20124;-58
2022/01/15 05:10:48;;;;;;;6.75;5.20;;;19.50;42.40;;;;;;5119099;28;20089;-58
2022/01/15 05:13:14;;;;;;;5.75;5.15;;;19.50;42.50;;;;;;5119186;28;20031;-58
2022/01/15 05:15:44;;;;;;;5.82;5.13;;;19.50;42.50;;;;;;5100974;28;20844;-58
2022/01/15 05:18:10;;;;;;;5.38;4.60;;;19.50;42.50;;;;;;5118861;28;20069;-59
2022/01/15 05:20:37;;;;;;;5.28;4.78;;;19.50;42.40;;;;;;5119105;28;20027;-57
2022/01/15 05:23:02;;;;;;;5.25;4.75;;;19.50;43.00;;;;;;5121155;28;20016;-59
2022/01/15 05:25:29;;;;;;;4.90;4.50;;;19.50;42.40;;;;;;5123506;27;20046;-58
2022/01/15 05:27:55;;;;;;;5.32;4.75;;;19.60;42.30;;;;;;5123919;28;20039;-58
2022/01/15 05:30:21;;;;;;;5.47;4.38;;;19.60;42.30;;;;;;5123488;28;20015;-58
2022/01/15 05:32:49;;;;;;;5.35;4.85;;;19.60;42.40;;;;;;5123606;28;20018;-58
2022/01/15 05:35:15;;;;;;;5.65;4.72;;;19.50;42.50;;;;;;5122984;28;20026;-58
2022/01/15 05:37:41;;;;;;;5.63;4.85;;;19.50;42.50;;;;;;5122828;28;20016;-58
2022/01/15 05:40:09;;;;;;;5.80;4.53;;;19.50;42.40;;;;;;5122724;28;20019;-58
2022/01/15 05:42:36;;;;;;;6.00;5.10;;;19.60;42.50;;;;;;5121962;28;20028;-58
2022/01/15 05:45:03;;;;;;;6.93;5.05;;;19.60;42.50;;;;;;5122587;28;20099;-58
2022/01/15 05:47:29;;;;;;;6.57;4.97;;;19.50;42.50;;;;;;5122524;28;20008;-58
2022/01/15 05:49:56;;;;;;;5.38;4.78;;;19.60;42.50;;;;;;5122662;28;20015;-59
2022/01/15 05:52:21;;;;;;;6.22;5.22;;;19.60;42.50;;;;;;5122674;28;20096;-58
2022/01/15 05:54:48;;;;;;;5.40;4.90;;;19.50;42.50;;;;;;5121844;28;20016;-59
2022/01/15 05:57:14;;;;;;;5.57;4.95;;;19.60;42.50;;;;;;5122920;28;20046;-58
2022/01/15 05:59:40;;;;;;;5.47;4.97;;;19.60;42.40;;;;;;5122488;28;20038;-59
2022/01/15 06:02:07;;;;;;;6.07;5.32;;;19.60;42.40;;;;;;5123209;28;20027;-58
2022/01/15 06:04:34;;;;;;;6.40;4.75;;;19.60;42.50;;;;;;5122378;28;20065;-57
2022/01/15 06:07:00;;;;;;;6.68;5.15;;;19.60;42.40;;;;;;5122670;28;20024;-58
2022/01/15 06:09:27;;;;;;;4.68;4.18;;;19.70;42.50;;;;;;5122068;28;20032;-58
2022/01/15 06:11:56;;;;;;;5.47;4.93;;;19.70;42.50;;;;;;5121664;28;20015;-58
2022/01/15 06:14:22;;;;;;;5.20;4.70;;;19.70;42.50;;;;;;5120315;28;20427;-58
2022/01/15 06:16:48;;;;;;;7.07;5.38;;;19.70;42.50;;;;;;5120331;28;20024;-57
2022/01/15 06:19:14;;;;;;;5.22;4.72;;;19.60;42.50;;;;;;5121147;28;20083;-57
2022/01/15 06:21:40;;;;;;;7.45;4.85;;;19.70;42.50;;;;;;5119945;28;20057;-57
2022/01/15 06:24:07;;;;;;;5.55;4.95;;;19.70;42.50;;;;;;5119150;28;20470;-57
2022/01/15 06:26:33;;;;;;;7.30;5.13;;;19.70;42.50;;;;;;5119592;28;20055;-58
2022/01/15 06:29:00;;;;;;;5.30;4.72;;;19.70;42.50;;;;;;5119416;28;20027;-57
2022/01/15 06:31:28;;;;;;;6.25;5.18;;;19.70;42.50;;;;;;5120416;28;20023;-58
2022/01/15 06:33:55;;;;;;;5.15;4.65;;;19.70;42.50;;;;;;5120132;28;20028;-58
2022/01/15 06:36:21;;;;;;;5.10;4.38;;;19.70;42.50;;;;;;5120968;28;20011;-58
2022/01/15 06:38:48;;;;;;;6.30;4.70;;;19.70;42.50;;;;;;5120426;28;20026;-58
2022/01/15 06:41:14;;;;;;;5.60;4.85;;;19.70;42.50;;;;;;5120043;28;20098;-58
2022/01/15 06:43:41;;;;;;;5.78;5.18;;;19.70;42.50;;;;;;5120091;28;20055;-57
2022/01/15 06:46:06;;;;;;;5.63;4.97;;;19.70;42.60;;;;;;5120371;28;20441;-56
2022/01/15 06:48:32;;;;;;;5.88;5.28;;;19.70;42.60;;;;;;5120669;28;20014;-57
2022/01/15 06:50:58;;;;;;;5.65;5.15;;;19.70;42.60;;;;;;5119848;28;20040;-56
2022/01/15 06:53:25;;;;;;;5.22;4.72;;;19.70;42.60;;;;;;5119243;28;20034;-56
2022/01/15 06:55:52;;;;;;;5.20;4.70;;;19.70;42.50;;;;;;5119005;28;20115;-57
2022/01/15 06:58:19;;;;;;;7.10;5.18;;;19.70;42.50;;;;;;5118674;28;20081;-56
2022/01/15 07:00:44;;;;;;;6.30;5.38;;;19.70;42.50;;;;;;5100591;28;20485;-56
2022/01/15 07:03:10;;;;;;;6.57;5.03;;;19.70;42.50;;;;;;5116522;28;20039;-56
2022/01/15 07:05:37;;;;;;;5.32;4.82;;;19.70;42.50;;;;;;5117307;28;20016;-56
2022/01/15 07:08:02;;;;;;;5.90;5.15;;;19.70;42.50;;;;;;5118460;28;20044;-56
2022/01/15 07:10:29;;;;;;;5.65;5.05;;;19.70;42.60;;;;;;5118449;28;20497;-56
2022/01/15 07:12:55;;;;;;;5.38;4.88;;;19.70;42.60;;;;;;5118414;28;20012;-56
2022/01/15 07:15:21;;;;;;;5.15;4.65;;;19.70;42.50;;;;;;5116695;28;20593;-56
2022/01/15 07:17:48;;;;;;;6.05;5.43;;;19.70;42.50;;;;;;5117756;28;20086;-56
2022/01/15 07:20:17;;;;;;;5.35;4.85;;;19.70;42.60;;;;;;5116444;28;20011;-56
2022/01/15 07:22:43;;;;;;;6.20;5.00;;;19.70;42.50;;;;;;5117808;28;20481;-56
2022/01/15 07:25:09;;;;;;;7.32;5.25;;;19.70;42.60;;;;;;5118137;28;20027;-56
2022/01/15 07:27:36;;;;;;;6.18;5.28;;;19.70;42.60;;;;;;5116486;28;20012;-56
2022/01/15 07:30:03;;;;;;;5.80;5.20;;;19.70;42.50;;;;;;5116996;28;20011;-56
2022/01/15 07:32:28;;;;;;;6.78;5.22;;;19.70;42.60;;;;;;5117575;28;20012;-56
2022/01/15 07:34:55;;;;;;;5.22;4.72;;;19.80;42.50;;;;;;5117369;28;20028;-57
2022/01/15 07:37:21;;;;;;;5.80;5.28;;;19.80;42.50;;;;;;5117714;28;20023;-56
2022/01/15 07:39:47;;;;;;;5.63;5.00;;;19.70;42.50;;;;;;5116592;28;20022;-56
2022/01/15 07:42:14;;;;;;;6.15;5.18;;;19.80;42.50;;;;;;5115991;28;20088;-57
2022/01/15 07:44:39;;;;;;;5.55;5.03;;;19.80;42.50;;;;;;5117015;28;20023;-56
2022/01/15 07:47:05;;;;;;;5.72;5.20;;;19.80;42.50;;;;;;5115752;28;20439;-55
2022/01/15 07:49:32;;;;;;;6.10;5.40;;;19.80;42.50;;;;;;5116422;28;20007;-56
2022/01/15 07:51:59;;;;;;;5.75;5.13;;;19.80;42.50;;;;;;5117540;28;20012;-56
2022/01/15 07:54:25;;;;;;;5.93;5.32;;;19.80;42.50;;;;;;5117558;28;20382;-56
2022/01/15 07:56:55;;;;;;;6.50;5.43;;;19.90;42.50;;;;;;5116951;28;20012;-57
2022/01/15 07:59:24;;;;;;;6.15;5.50;;;19.80;42.40;;;;;;5117575;28;20094;-56
2022/01/15 08:01:50;;;;;;;6.13;5.50;;;19.80;42.50;;;;;;5117863;28;20023;-57
2022/01/15 08:04:18;;;;;;;6.93;5.40;;;19.80;42.50;;;;;;5117536;28;20050;-55
2022/01/15 08:06:43;;;;;;;5.30;4.80;;;19.80;42.50;;;;;;5117728;28;20394;-56
2022/01/15 08:09:09;;;;;;;5.93;5.25;;;19.80;42.50;;;;;;5116141;28;20040;-56
2022/01/15 08:11:35;;;;;;;8.02;5.35;;;19.80;42.50;;;;;;5117507;28;20004;-56
2022/01/15 08:14:01;;;;;;;6.78;5.30;;;19.80;42.50;;;;;;5115632;28;20028;-56
2022/01/15 08:16:27;;;;;;;5.97;5.35;;;19.80;42.50;;;;;;5117126;28;20020;-57
2022/01/15 08:18:53;;;;;;;6.43;5.18;;;19.80;42.50;;;;;;5117684;28;20037;-56
2022/01/15 08:21:19;;;;;;;6.60;5.90;;;19.80;42.50;;;;;;5116108;28;20447;-57
2022/01/15 08:23:45;;;;;;;5.18;4.68;;;19.90;42.50;;;;;;5115562;28;20028;-57
2022/01/15 08:26:11;;;;;;;5.90;5.30;;;19.90;42.40;;;;;;5115798;28;20083;-56
2022/01/15 08:28:40;;;;;;;6.15;5.55;;;19.90;42.50;;;;;;5116543;28;20028;-56
2022/01/15 08:31:06;;;;;;;6.57;5.88;;;19.90;42.50;;;;;;5114591;28;20510;-56
2022/01/15 08:33:33;;;;;;;6.10;5.15;;;19.90;42.50;;;;;;5115654;28;20023;-57
2022/01/15 08:35:59;;;;;;;5.72;5.15;;;19.90;42.50;;;;;;5115415;28;20012;-56
2022/01/15 08:38:25;;;;;;;6.43;5.80;;;19.90;42.50;;;;;;5115837;28;20016;-57
2022/01/15 08:40:51;;;;;;;6.40;5.80;;;19.90;42.50;;;;;;5114808;28;20030;-56
2022/01/15 08:43:18;;;;;;;7.90;5.72;;;19.90;42.40;;;;;;5116450;28;20562;-56
2022/01/15 08:45:45;;;;;;;6.22;5.47;;;19.90;42.30;;;;;;5116806;28;20019;-59
2022/01/15 08:48:11;;;;;;;6.70;5.80;;;19.90;42.40;;;;;;5117003;28;20011;-56
2022/01/15 08:50:37;;;;;;;6.57;5.38;;;19.90;42.40;;;;;;5116579;28;20026;-56
2022/01/15 08:53:06;;;;;;;6.85;5.65;;;19.90;42.40;;;;;;5115287;28;20386;-57
2022/01/15 08:55:35;;;;;;;5.82;5.32;;;19.90;42.40;;;;;;5115069;28;20016;-57
2022/01/15 08:58:01;;;;;;;6.22;5.20;;;19.90;42.60;;;;;;5115946;28;20030;-56
2022/01/15 09:00:28;;;;;;;5.30;4.80;;;19.90;42.50;;;;;;5115834;28;20023;-56
2022/01/15 09:02:55;;;;;;;6.05;5.45;;;19.90;42.50;;;;;;5114459;28;20056;-56
2022/01/15 09:05:20;;;;;;;6.13;5.53;;;19.90;42.60;;;;;;5115367;28;20019;-56
2022/01/15 09:07:46;;;;;;;6.35;5.60;;;19.90;42.50;;;;;;5115022;28;20044;-56
2022/01/15 09:10:13;;;;;;;7.32;5.60;;;19.90;43.10;;;;;;5114797;28;20026;-56
2022/01/15 09:12:39;;;;;;;5.90;5.30;;;19.90;43.10;;;;;;5114924;28;20012;-56
2022/01/15 09:15:08;;;;;;;6.38;5.40;;;19.90;42.50;;;;;;5115468;28;20047;-56
2022/01/15 09:17:33;;;;;;;6.80;6.07;;;19.90;42.50;;;;;;5115615;28;20004;-59
2022/01/15 09:19:59;;;;;;;6.57;5.90;;;19.90;42.40;;;;;;5114368;28;20104;-56
2022/01/15 09:22:25;;;;;;;6.15;5.50;;;19.90;42.50;;;;;;5116133;28;20008;-56
2022/01/15 09:24:51;;;;;;;6.10;5.50;;;19.90;42.50;;;;;;5116181;28;20458;-56
2022/01/15 09:30:12;;;;;;;6.10;5.50;;;19.90;42.40;;;;;;5115612;28;20019;-56
2022/01/15 09:32:45;;;;;;;8.38;5.20;;;20.00;42.50;;;;;;5114147;28;20016;-56
2022/01/15 09:35:12;;;;;;;7.40;6.05;;;20.00;42.50;;;;;;5114990;28;20562;-58
2022/01/15 09:37:38;;;;;;;6.18;5.57;;;19.90;42.50;;;;;;5114976;28;20099;-56
2022/01/15 09:40:05;;;;;;;6.78;5.82;;;20.00;42.50;;;;;;5114103;28;20446;-56
2022/01/15 09:42:31;;;;;;;6.10;5.50;;;20.00;42.50;;;;;;5114228;28;20007;-56
2022/01/15 09:44:57;;;;;;;6.20;5.60;;;20.00;42.50;;;;;;5114302;28;20035;-54
2022/01/15 09:47:22;;;;;;;6.53;5.88;;;20.00;42.40;;;;;;5112865;28;20394;-56
2022/01/15 09:49:48;;;;;;;7.22;5.75;;;20.00;42.40;;;;;;5112585;28;20493;-57
2022/01/15 09:52:17;;;;;;;6.35;5.18;;;20.00;42.40;;;;;;5114113;28;20034;-56
2022/01/15 09:54:44;;;;;;;8.98;5.80;;;20.00;42.50;;;;;;5112614;28;20035;-56
2022/01/15 09:57:09;;;;;;;6.32;5.72;;;20.00;42.40;;;;;;5113207;28;20015;-58
2022/01/15 09:59:36;;;;;;;6.72;5.47;;;20.00;42.40;;;;;;5113861;28;20505;-57
2022/01/15 10:02:03;;;;;;;7.30;6.05;;;20.00;42.40;;;;;;5114117;28;20038;-56
2022/01/15 10:04:32;;;;;;;6.10;5.50;;;20.00;42.40;;;;;;5112351;28;20052;-56
2022/01/15 10:07:14;;;;;;;5.88;5.38;;;20.10;42.40;;;;;;5112038;28;20474;-57
2022/01/15 10:09:42;;;;;;;5.85;5.25;;;20.00;42.40;;;;;;5114727;28;20043;-57
2022/01/15 10:12:08;;;;;;;6.18;5.57;;;20.00;42.50;;;;;;5117580;28;20007;-56
2022/01/15 10:14:36;;;;;;;8.05;6.05;;;20.00;42.40;;;;;;5117525;27;20031;-56
2022/01/15 10:17:05;;;;;;;6.65;5.90;;;20.10;42.50;;;;;;5117312;27;20008;-57
2022/01/15 10:19:35;;;;;;;6.10;5.50;;;20.10;43.00;;;;;;5117040;28;20397;-56
2022/01/15 10:22:09;;;;;;;6.85;6.15;;;20.10;42.40;;;;;;5117150;28;20466;-55
2022/01/15 10:24:37;;;;;;;7.88;6.30;;;20.10;42.50;;;;;;5117224;28;20023;-55
2022/01/15 10:27:22;;;;;;;6.78;5.93;;;20.10;42.50;;;;;;5117006;28;20019;-56
2022/01/15 10:29:53;;;;;;;6.38;5.78;;;20.10;42.50;;;;;;5116755;28;20595;-57
2022/01/15 10:32:19;;;;;;;6.35;5.38;;;20.10;42.40;;;;;;5117133;28;20015;-56
2022/01/15 10:34:45;;;;;;;5.97;5.38;;;20.10;42.40;;;;;;5116717;28;20023;-56
2022/01/15 10:37:19;;;;;;;6.55;5.95;;;20.10;42.40;;;;;;5117033;28;20051;-56
2022/01/15 10:40:07;;;;;;;6.82;6.22;;;20.20;42.40;;;;;;5116592;28;20031;-57
2022/01/15 10:42:34;;;;;;;8.07;6.32;;;20.10;42.40;;;;;;5116802;28;20095;-57
2022/01/15 10:45:07;;;;;;;6.13;5.53;;;20.10;42.40;;;;;;5116992;28;20026;-58
2022/01/15 10:47:39;;;;;;;6.18;5.57;;;20.10;42.40;;;;;;5117151;28;20489;-57
2022/01/15 10:50:06;;;;;;;7.43;6.13;;;20.10;42.40;;;;;;5116028;28;20024;-61
2022/01/15 10:52:32;;;;;;;6.47;5.72;;;20.10;42.30;;;;;;5116955;28;20012;-59
2022/01/15 10:55:00;;;;;;;6.53;5.93;;;20.10;42.40;;;;;;5116005;28;20024;-57
2022/01/15 10:57:33;;;;;;;6.10;5.50;;;20.10;42.40;;;;;;5117013;28;20012;-59
2022/01/15 11:00:00;;;;;;;6.57;5.65;;;20.20;42.40;;;;;;5117116;28;20022;-59
2022/01/15 11:02:27;;;;;;;6.18;5.57;;;20.20;42.30;;;;;;5116916;28;20043;-59
2022/01/15 11:04:53;;;;;;;7.03;6.32;;;20.20;42.30;;;;;;5116785;28;20020;-59
2022/01/15 11:07:19;;;;;;;9.20;6.22;;;20.20;42.30;;;;;;5116394;28;20092;-58
2022/01/15 11:09:47;;;;;;;6.78;5.72;;;20.20;42.40;;;;;;5116776;28;20077;-57
2022/01/15 11:12:12;;;;;;;6.93;6.07;;;20.20;42.40;;;;;;5116972;28;20056;-58
2022/01/15 11:14:39;;;;;;;5.95;5.35;;;20.20;42.40;;;;;;5116396;28;20149;-58
2022/01/15 11:17:06;;;;;;;6.63;5.85;;;20.20;42.40;;;;;;5116309;27;20015;-58
2022/01/15 11:19:32;;;;;;;6.00;5.40;;;20.20;42.30;;;;;;5116098;28;20016;-58
2022/01/15 11:21:58;;;;;;;7.38;5.47;;;20.20;42.30;;;;;;5116118;28;20048;-58
2022/01/15 11:24:24;;;;;;;6.13;5.53;;;20.20;42.30;;;;;;5115852;27;20053;-58
2022/01/15 11:27:00;;;;;;;7.40;5.18;;;20.20;42.30;;;;;;5117294;28;20019;-57
2022/01/15 11:29:26;;;;;;;6.32;5.72;;;20.20;42.30;;;;;;5117686;28;20016;-57
2022/01/15 11:31:56;;;;;;;6.78;5.72;;;20.20;42.30;;;;;;5117575;28;20014;-58
2022/01/15 11:34:23;;;;;;;6.18;5.57;;;20.20;42.30;;;;;;5116892;28;20051;-57
2022/01/15 11:36:49;;;;;;;6.65;5.70;;;20.20;42.30;;;;;;5116603;28;20112;-58
2022/01/15 11:39:32;;;;;;;7.15;6.05;;;20.20;42.40;;;;;;5115603;28;20034;-57
2022/01/15 11:42:00;;;;;;;6.18;5.57;;;20.30;42.40;;;;;;5116372;28;20020;-58
2022/01/15 11:44:28;;;;;;;6.57;5.90;;;20.30;42.30;;;;;;5116036;28;20076;-58
2022/01/15 11:46:54;;;;;;;6.10;5.50;;;20.30;42.40;;;;;;5115316;28;20008;-58
2022/01/15 11:49:30;;;;;;;5.80;5.30;;;20.20;42.30;;;;;;5115542;28;20094;-57
2022/01/15 11:52:08;;;;;;;6.35;5.50;;;20.20;42.40;;;;;;5116990;28;20004;-58
2022/01/15 11:54:37;;;;;;;7.18;6.05;;;20.20;42.40;;;;;;5116693;28;20024;-57
2022/01/15 11:57:04;;;;;;;5.95;5.35;;;20.30;42.40;;;;;;5116633;28;20011;-58
2022/01/15 11:59:30;;;;;;;7.32;6.10;;;20.30;42.40;;;;;;5115580;28;20012;-57
2022/01/15 12:02:01;;;;;;;6.07;5.47;;;20.30;42.40;;;;;;5116651;28;20020;-58
2022/01/15 12:04:34;;;;;;;6.10;5.50;;;20.30;42.40;;;;;;5117030;28;20027;-58
2022/01/15 12:07:06;;;;;;;6.10;5.40;;;20.30;42.40;;;;;;5117096;28;20018;-58
2022/01/15 12:09:41;;;;;;;6.30;5.70;;;20.30;42.30;;;;;;5117009;28;20500;-57
2022/01/15 12:14:48;;;;;;;6.30;5.70;;;20.20;42.40;;;;;;5117369;28;20149;-57
2022/01/15 12:17:23;;;;;;;6.10;5.53;;;20.30;42.40;;;;;;5117586;28;20054;-57
2022/01/15 12:19:50;;;;;;;6.40;5.60;;;20.30;42.30;;;;;;5117762;28;20015;-58
2022/01/15 12:22:36;;;;;;;5.80;5.30;;;20.30;42.30;;;;;;5117810;28;20129;-57
2022/01/15 12:25:12;;;;;;;6.28;5.68;;;20.30;42.40;;;;;;5115917;28;20110;-57
2022/01/15 12:27:39;;;;;;;5.97;5.38;;;20.30;42.40;;;;;;5116838;28;20008;-58
2022/01/15 12:30:13;;;;;;;5.93;5.15;;;20.30;42.40;;;;;;5116832;28;20015;-57
2022/01/15 12:32:41;;;;;;;6.47;5.88;;;20.30;42.40;;;;;;5116847;28;20016;-57
2022/01/15 12:35:14;;;;;;;8.77;5.82;;;20.30;42.30;;;;;;5117358;28;20092;-59
2022/01/15 12:38:00;;;;;;;5.78;5.28;;;20.30;42.40;;;;;;5117375;28;20035;-57
2022/01/15 12:40:42;;;;;;;6.15;5.55;;;20.30;42.40;;;;;;5116949;28;20481;-57
2022/01/15 12:43:25;;;;;;;6.43;5.80;;;20.30;42.40;;;;;;5117001;28;20485;-58
2022/01/15 12:45:56;;;;;;;6.30;5.60;;;20.30;42.50;;;;;;5116065;27;20012;-58
2022/01/15 12:48:29;;;;;;;6.40;5.43;;;20.30;42.40;;;;;;5114122;28;20003;-58
2022/01/15 12:50:56;;;;;;;6.18;5.57;;;20.30;42.40;;;;;;5115185;28;20382;-58
2022/01/15 12:53:27;;;;;;;6.28;5.18;;;20.20;42.50;;;;;;5115279;28;20496;-56
2022/01/15 12:55:53;;;;;;;;;;;20.20;42.60;;;;;;5115695;28;20381;-57
2022/01/15 12:58:21;;;;;;;6.03;5.45;;;20.20;42.60;;;;;;5115657;28;19987;-59
2022/01/15 13:00:47;;;;;;;5.95;5.35;;;20.10;42.70;;;;;;5115858;28;20026;-59
2022/01/15 13:03:14;;;;;;;6.07;5.47;;;20.10;42.80;;;;;;5115183;28;20038;-58
2022/01/15 13:05:52;;;;;;;6.55;5.40;;;20.10;42.80;;;;;;5115346;28;20046;-61
2022/01/15 13:08:19;;;;;;;6.20;5.60;;;20.00;42.90;;;;;;5114810;28;20509;-57
2022/01/15 13:10:50;;;;;;;5.85;5.35;;;20.00;43.00;;;;;;5114879;28;20011;-58
2022/01/15 13:13:17;;;;;;;;;;;19.90;43.20;;;;;;5115848;28;20015;-58